Terminal Aerodrome Forecast
Issued by NWS

Home | Current Version | Previous Version | Text Only | Print | Product List | Glossary On
Versions: 1 2 3 4 5 6 7 8 9 10 11 12 13 14 15 16 17 18 19 20 21 22 23
427
FTUS43 KDLH 210704 AAA
TAFHYR
TAF AMD
KHYR 210704Z 2107/2206 15004KT 5SM -DZ BR OVC003
     FM211000 11005KT 4SM -DZ BR OVC004
     FM211600 09004KT 2SM -RA BR OVC007=

USA.gov is the U.S. government's official web portal to all federal, state and local government web resources and services.